Time;durP1;ratioP1;P1;durP2;ratioP2;P2;SDS_P1;SDS_P2;PMS_P1;PMS_P2;Temp;Humidity;BMP_temperature;BMP_pressure;BME280_temperature;BME280_humidity;BME280_pressure;Samples;Min_cycle;Max_cycle;Signal;HPM_P1;HPM_P2
2022/11/14 00:00:44;;;;;;;40.17;21.70;;;6.70;99.90;;;;;;4992349;28;20173;-92
2022/11/14 00:03:11;;;;;;;34.63;20.57;;;6.70;99.90;;;;;;4993420;28;20239;-91
2022/11/14 00:05:42;;;;;;;37.67;20.97;;;6.70;99.90;;;;;;4977520;28;20172;-90
2022/11/14 00:08:20;;;;;;;38.40;21.60;;;6.70;99.90;;;;;;4976954;28;20216;-91
2022/11/14 00:10:46;;;;;;;39.10;22.27;;;6.70;99.90;;;;;;4992531;28;20608;-91
2022/11/14 00:13:16;;;;;;;40.10;21.47;;;6.70;99.90;;;;;;4992604;28;20620;-96
2022/11/14 00:15:42;;;;;;;36.27;21.90;;;6.70;99.90;;;;;;4992231;28;20308;-96
2022/11/14 00:18:08;;;;;;;38.57;22.00;;;6.70;99.90;;;;;;4992299;28;20181;-91
2022/11/14 00:20:34;;;;;;;39.83;22.97;;;6.70;99.90;;;;;;4976951;28;20180;-93
2022/11/14 00:23:00;;;;;;;39.53;22.60;;;6.70;99.90;;;;;;4991812;28;20177;-94
2022/11/14 00:25:25;;;;;;;37.00;21.93;;;6.70;99.90;;;;;;4992777;28;20207;-93
2022/11/14 00:27:56;;;;;;;38.73;21.53;;;6.70;99.90;;;;;;4991894;28;20204;-91
2022/11/14 00:30:22;;;;;;;40.17;22.17;;;6.70;99.90;;;;;;4991776;28;20189;-89
2022/11/14 00:32:48;;;;;;;38.77;21.73;;;6.70;99.90;;;;;;4991928;28;20593;-88
2022/11/14 00:35:13;;;;;;;41.30;22.03;;;6.70;99.90;;;;;;4991632;28;20184;-93
2022/11/14 00:37:39;;;;;;;36.07;22.07;;;6.70;99.90;;;;;;5431207;23;20570;-91
2022/11/14 00:40:05;;;;;;;39.03;22.23;;;6.70;99.90;;;;;;4990650;28;20677;-89
2022/11/14 00:42:31;;;;;;;38.20;21.70;;;6.60;99.90;;;;;;4990085;28;20579;-87
2022/11/14 00:44:56;;;;;;;37.40;22.00;;;6.70;99.90;;;;;;4997256;28;20173;-90
2022/11/14 00:47:22;;;;;;;43.77;23.27;;;6.60;99.90;;;;;;4995209;28;20195;-95
2022/11/14 00:49:50;;;;;;;41.97;23.63;;;6.70;99.90;;;;;;4994562;28;20227;-89
2022/11/14 00:52:16;;;;;;;45.97;23.70;;;6.60;99.90;;;;;;4995288;28;20176;-93
2022/11/14 00:54:41;;;;;;;39.73;22.03;;;6.60;99.90;;;;;;4994614;28;20606;-88
2022/11/14 00:57:07;;;;;;;39.93;22.43;;;6.60;99.90;;;;;;4996263;28;20176;-94
2022/11/14 00:59:34;;;;;;;40.63;23.33;;;6.60;99.90;;;;;;4994907;28;20180;-88
2022/11/14 01:02:00;;;;;;;41.17;23.43;;;6.70;99.90;;;;;;4994722;28;20622;-94
2022/11/14 01:04:26;;;;;;;39.90;21.80;;;6.60;99.90;;;;;;4994537;28;20188;-90
2022/11/14 01:06:51;;;;;;;40.70;22.60;;;6.70;99.90;;;;;;4994553;28;20176;-89
2022/11/14 01:09:29;;;;;;;43.00;22.77;;;6.60;99.90;;;;;;4995066;28;20258;-89
2022/11/14 01:11:54;;;;;;;37.03;22.50;;;6.60;99.90;;;;;;4995061;28;20172;-89
2022/11/14 01:14:20;;;;;;;40.43;22.17;;;6.60;99.90;;;;;;4994823;28;20248;-91
2022/11/14 01:16:48;;;;;;;40.17;22.17;;;6.60;99.90;;;;;;4994444;28;20180;-90
2022/11/14 01:19:15;;;;;;;42.87;23.83;;;6.60;99.90;;;;;;4995016;28;20176;-90
2022/11/14 01:21:41;;;;;;;47.33;25.60;;;6.70;99.90;;;;;;4978832;28;20253;-89
2022/11/14 01:24:07;;;;;;;42.77;23.30;;;6.70;99.90;;;;;;4994513;28;20180;-89
2022/11/14 01:26:32;;;;;;;41.50;22.77;;;6.60;99.90;;;;;;4994795;28;20271;-92
2022/11/14 01:28:58;;;;;;;39.27;22.17;;;6.70;99.90;;;;;;4994726;28;20212;-90
2022/11/14 01:31:25;;;;;;;39.67;21.23;;;6.60;99.90;;;;;;4995789;28;20669;-92
2022/11/14 01:33:52;;;;;;;44.70;23.60;;;6.60;99.90;;;;;;4996071;28;20234;-93
2022/11/14 01:36:18;;;;;;;39.63;22.80;;;6.60;99.90;;;;;;4998255;28;20172;-89
2022/11/14 01:38:44;;;;;;;46.37;24.43;;;6.60;99.90;;;;;;4998098;28;20242;-93
2022/11/14 01:41:14;;;;;;;39.90;22.13;;;6.60;99.90;;;;;;4998115;28;20183;-91
2022/11/14 01:43:40;;;;;;;40.47;23.03;;;6.60;99.90;;;;;;4998534;28;20623;-90
2022/11/14 01:46:13;;;;;;;44.17;22.53;;;6.60;99.90;;;;;;4998229;28;20606;-94
2022/11/14 01:48:47;;;;;;;38.87;21.80;;;6.60;99.90;;;;;;4998303;28;20215;-90
2022/11/14 01:51:18;;;;;;;39.53;21.87;;;6.60;99.90;;;;;;4998065;28;20198;-94
2022/11/14 01:53:45;;;;;;;43.20;22.10;;;6.60;99.90;;;;;;4999370;28;20302;-95
2022/11/14 01:56:15;;;;;;;48.33;24.30;;;6.60;99.90;;;;;;4999101;28;20184;-92
2022/11/14 01:58:46;;;;;;;45.97;23.77;;;6.60;99.90;;;;;;4998117;28;20592;-92
2022/11/14 02:01:16;;;;;;;43.47;24.20;;;6.60;99.90;;;;;;4999313;28;20178;-93
2022/11/14 02:03:44;;;;;;;49.27;23.17;;;6.60;99.90;;;;;;4998048;28;20179;-93
2022/11/14 02:06:14;;;;;;;49.67;23.83;;;6.50;99.90;;;;;;4998502;28;20172;-93
2022/11/14 02:08:41;;;;;;;47.17;24.93;;;6.50;99.90;;;;;;4998416;28;20650;-93
2022/11/14 02:11:12;;;;;;;46.60;24.23;;;6.50;99.90;;;;;;4999793;28;20184;-90
2022/11/14 02:13:38;;;;;;;48.30;24.23;;;6.50;99.90;;;;;;4998638;28;20259;-91
2022/11/14 02:16:05;;;;;;;49.30;23.67;;;6.50;99.90;;;;;;4998629;28;20709;-89
2022/11/14 02:18:30;;;;;;;53.23;25.87;;;6.50;99.90;;;;;;4998327;28;20269;-89
2022/11/14 02:21:00;;;;;;;46.93;24.70;;;6.50;99.90;;;;;;4999233;28;20184;-93
2022/11/14 02:23:31;;;;;;;47.70;24.53;;;6.40;99.90;;;;;;4998860;28;20606;-93
2022/11/14 02:25:57;;;;;;;53.53;25.67;;;6.40;99.90;;;;;;4998849;28;20311;-95
2022/11/14 02:28:24;;;;;;;50.80;25.30;;;6.40;99.90;;;;;;4997155;28;20207;-94
2022/11/14 02:30:51;;;;;;;56.90;26.77;;;6.40;99.90;;;;;;4998386;28;20618;-93
2022/11/14 02:33:17;;;;;;;53.63;27.40;;;6.40;99.90;;;;;;4997406;28;20606;-93
2022/11/14 02:35:43;;;;;;;57.20;27.57;;;6.40;99.90;;;;;;4998534;28;20183;-92
2022/11/14 02:38:09;;;;;;;57.00;26.57;;;6.40;99.90;;;;;;4997332;28;20223;-94
2022/11/14 02:40:40;;;;;;;51.53;26.17;;;6.30;99.90;;;;;;4997944;28;20242;-95
2022/11/14 02:43:06;;;;;;;55.67;27.53;;;6.30;99.90;;;;;;4997053;28;20234;-95
2022/11/14 02:45:31;;;;;;;51.07;26.47;;;6.30;99.90;;;;;;4997339;28;20191;-93
2022/11/14 02:47:57;;;;;;;52.47;26.00;;;6.30;99.90;;;;;;4996863;28;20184;-95
2022/11/14 02:50:47;;;;;;;52.43;25.63;;;6.30;99.90;;;;;;4997207;28;20195;-95
2022/11/14 02:53:13;;;;;;;56.93;26.97;;;6.30;99.90;;;;;;4997677;28;20211;-95
2022/11/14 02:55:39;;;;;;;55.63;26.17;;;6.30;99.90;;;;;;4997073;28;20207;-94
2022/11/14 02:58:07;;;;;;;56.43;28.10;;;6.30;99.90;;;;;;4997386;28;20677;-95
2022/11/14 03:00:34;;;;;;;58.33;26.80;;;6.30;99.90;;;;;;4998079;28;20242;-91
2022/11/14 03:03:00;;;;;;;55.37;27.40;;;6.30;99.90;;;;;;4997306;28;20164;-95
2022/11/14 03:05:25;;;;;;;54.27;26.80;;;6.20;99.90;;;;;;4996973;28;20187;-94
2022/11/14 03:07:55;;;;;;;58.63;27.50;;;6.20;99.90;;;;;;4997176;28;20176;-92
2022/11/14 03:10:23;;;;;;;57.80;27.87;;;6.20;99.90;;;;;;4998253;28;20271;-92
2022/11/14 03:12:53;;;;;;;55.97;26.80;;;6.20;99.90;;;;;;4997040;28;20212;-93
2022/11/14 03:15:19;;;;;;;53.37;25.63;;;6.20;99.90;;;;;;4998338;28;20619;-95
2022/11/14 03:17:45;;;;;;;57.13;26.97;;;6.20;99.90;;;;;;4996659;28;20183;-94
2022/11/14 03:20:19;;;;;;;56.13;28.20;;;6.20;99.90;;;;;;4996639;28;20521;-90
2022/11/14 03:22:44;;;;;;;56.43;26.20;;;6.20;99.90;;;;;;4996233;28;20514;-94
2022/11/14 03:25:10;;;;;;;55.50;26.93;;;6.20;99.90;;;;;;4997219;28;20251;-93
2022/11/14 03:27:36;;;;;;;53.87;26.57;;;6.20;99.90;;;;;;4996355;28;20202;-94
2022/11/14 03:30:03;;;;;;;56.07;27.97;;;6.10;99.90;;;;;;4996125;28;20221;-89
2022/11/14 03:32:28;;;;;;;54.80;26.23;;;6.10;99.90;;;;;;4996529;28;20307;-91
2022/11/14 03:34:54;;;;;;;57.77;26.10;;;6.10;99.90;;;;;;4996202;28;20191;-89
2022/11/14 03:37:20;;;;;;;52.43;26.43;;;6.10;99.90;;;;;;4995366;28;20183;-92
2022/11/14 03:39:49;;;;;;;54.97;27.50;;;6.10;99.90;;;;;;4994905;28;20231;-89
2022/11/14 03:42:17;;;;;;;54.00;26.10;;;6.10;99.90;;;;;;4995397;28;20180;-92
2022/11/14 03:44:43;;;;;;;53.43;26.67;;;6.10;99.90;;;;;;4995703;28;20194;-94
2022/11/14 03:47:08;;;;;;;52.83;25.17;;;6.10;99.90;;;;;;4995719;28;20176;-94
2022/11/14 03:49:34;;;;;;;57.57;28.03;;;6.00;99.90;;;;;;4995495;28;20228;-94
2022/11/14 03:52:01;;;;;;;53.10;26.13;;;6.00;99.90;;;;;;4995821;28;20192;-92
2022/11/14 03:54:26;;;;;;;53.07;25.60;;;6.00;99.90;;;;;;4995434;28;20274;-92
2022/11/14 03:56:52;;;;;;;53.30;26.47;;;6.10;99.90;;;;;;4995128;28;20290;-92
2022/11/14 03:59:18;;;;;;;52.20;25.73;;;6.00;99.90;;;;;;4996751;28;20234;-93
2022/11/14 04:01:47;;;;;;;55.10;24.73;;;6.00;99.90;;;;;;4995576;28;20226;-89
2022/11/14 04:04:13;;;;;;;54.13;25.70;;;6.00;99.90;;;;;;4995359;28;20172;-92
2022/11/14 04:06:39;;;;;;;52.67;25.53;;;6.00;99.90;;;;;;4995331;28;20187;-91
2022/11/14 04:09:05;;;;;;;52.37;24.63;;;5.90;99.90;;;;;;4987742;28;20220;-91
2022/11/14 04:11:36;;;;;;;54.80;26.07;;;6.00;99.90;;;;;;4975735;28;20527;-89
2022/11/14 04:14:02;;;;;;;57.00;26.80;;;5.90;99.90;;;;;;4975849;28;20272;-89
2022/11/14 04:16:27;;;;;;;56.33;25.33;;;5.90;99.90;;;;;;4975783;28;20216;-91
2022/11/14 04:18:53;;;;;;;53.43;26.67;;;6.00;99.90;;;;;;4975962;28;20589;-94
2022/11/14 04:21:24;;;;;;;51.90;26.00;;;6.00;99.90;;;;;;4975659;28;20188;-92
2022/11/14 04:23:49;;;;;;;47.90;24.47;;;6.00;99.90;;;;;;4975452;28;20212;-91
2022/11/14 04:26:15;;;;;;;49.93;25.77;;;5.90;99.90;;;;;;4975884;28;20220;-89
2022/11/14 04:28:41;;;;;;;49.43;24.47;;;5.90;99.90;;;;;;4975584;28;20204;-92
2022/11/14 04:31:11;;;;;;;50.47;24.50;;;5.90;99.90;;;;;;4975465;28;20184;-93
2022/11/14 04:33:36;;;;;;;48.70;24.47;;;5.90;99.90;;;;;;4975623;28;20516;-94
2022/11/14 04:36:02;;;;;;;52.43;25.97;;;5.90;99.90;;;;;;4975857;28;20192;-92
2022/11/14 04:38:28;;;;;;;53.97;24.77;;;5.90;99.90;;;;;;4978806;28;20228;-89
2022/11/14 04:40:56;;;;;;;51.10;24.67;;;5.90;99.90;;;;;;4995895;28;20176;-93
2022/11/14 04:43:21;;;;;;;47.03;24.00;;;5.80;99.90;;;;;;4996002;28;20625;-88
2022/11/14 04:45:47;;;;;;;55.37;25.47;;;5.80;99.90;;;;;;4995186;28;20176;-94
2022/11/14 04:48:13;;;;;;;50.77;24.83;;;5.80;99.90;;;;;;4994866;28;20199;-90
2022/11/14 04:50:39;;;;;;;53.37;26.30;;;5.80;99.90;;;;;;4994908;28;20689;-91
2022/11/14 04:53:04;;;;;;;50.27;25.17;;;5.80;99.90;;;;;;4994448;28;20188;-90
2022/11/14 04:55:30;;;;;;;53.10;25.70;;;5.80;99.90;;;;;;4994393;28;20172;-90
2022/11/14 04:57:57;;;;;;;56.33;26.67;;;5.80;99.90;;;;;;4994542;28;20222;-93
2022/11/14 05:00:26;;;;;;;48.53;25.10;;;5.80;99.90;;;;;;4994687;28;20222;-89
2022/11/14 05:02:51;;;;;;;49.00;23.80;;;5.80;99.90;;;;;;4996177;28;20168;-92
2022/11/14 05:05:17;;;;;;;52.57;25.37;;;5.80;99.90;;;;;;4994848;28;20262;-91
2022/11/14 05:07:43;;;;;;;52.33;25.57;;;5.80;99.90;;;;;;4995895;28;20199;-91
2022/11/14 05:10:09;;;;;;;48.57;24.80;;;5.80;99.90;;;;;;4998378;28;20281;-93
2022/11/14 05:12:35;;;;;;;49.90;23.70;;;5.80;99.90;;;;;;4998991;28;20198;-92
2022/11/14 05:15:01;;;;;;;48.40;25.87;;;5.80;99.90;;;;;;4998951;28;20186;-90
2022/11/14 05:17:27;;;;;;;50.70;24.53;;;5.80;99.90;;;;;;4998258;28;20172;-91
2022/11/14 05:19:52;;;;;;;51.33;24.77;;;5.80;99.90;;;;;;4998570;28;20272;-93
2022/11/14 05:22:21;;;;;;;45.97;23.43;;;5.80;99.90;;;;;;4998215;28;20226;-93
2022/11/14 05:24:47;;;;;;;48.10;23.30;;;5.90;99.90;;;;;;4999339;28;20173;-89
2022/11/14 05:27:13;;;;;;;43.90;22.43;;;5.80;99.90;;;;;;4998256;28;20239;-92
2022/11/14 05:29:38;;;;;;;37.23;21.63;;;5.80;99.90;;;;;;4998058;28;20298;-91
2022/11/14 05:32:04;;;;;;;37.67;20.57;;;5.80;99.90;;;;;;4997937;28;20267;-91
2022/11/14 05:34:30;;;;;;;35.00;20.40;;;5.80;99.90;;;;;;4997805;28;20254;-89
2022/11/14 05:36:56;;;;;;;41.83;22.30;;;5.70;99.90;;;;;;4998054;28;20686;-91
2022/11/14 05:39:21;;;;;;;39.70;21.03;;;5.70;99.90;;;;;;4988257;28;20339;-90
2022/11/14 05:42:06;;;;;;;39.50;20.93;;;5.70;99.90;;;;;;4978288;28;20176;-89
2022/11/14 05:44:31;;;;;;;46.43;23.73;;;5.80;99.90;;;;;;4978261;28;20177;-88
2022/11/14 05:46:57;;;;;;;48.33;24.30;;;5.70;99.90;;;;;;4978357;28;20208;-88
2022/11/14 05:49:23;;;;;;;49.80;24.17;;;5.80;99.90;;;;;;4978267;28;20299;-89
2022/11/14 05:51:51;;;;;;;56.37;26.13;;;5.80;99.90;;;;;;4978195;28;20181;-89
2022/11/14 05:54:16;;;;;;;48.50;25.57;;;5.80;99.90;;;;;;4978061;28;20247;-89
2022/11/14 05:56:42;;;;;;;45.40;23.63;;;5.80;99.90;;;;;;4979218;28;20627;-92
2022/11/14 05:59:08;;;;;;;45.70;24.03;;;5.80;99.90;;;;;;4978035;28;20686;-87
2022/11/14 06:01:34;;;;;;;45.50;23.90;;;5.70;99.90;;;;;;4994358;28;20179;-89
2022/11/14 06:03:59;;;;;;;41.80;22.90;;;5.80;99.90;;;;;;4977872;28;20185;-92
2022/11/14 06:06:25;;;;;;;40.53;21.07;;;5.70;99.90;;;;;;4978220;28;20184;-89
2022/11/14 06:08:52;;;;;;;48.97;23.83;;;5.70;99.90;;;;;;4983179;28;20654;-89
2022/11/14 06:11:31;;;;;;;43.67;21.43;;;5.70;99.90;;;;;;4997167;28;20234;-88
2022/11/14 06:13:57;;;;;;;44.30;21.63;;;5.80;99.90;;;;;;4997473;28;20184;-93
2022/11/14 06:16:23;;;;;;;46.57;23.47;;;5.80;99.90;;;;;;4997100;28;20522;-90
2022/11/14 06:18:52;;;;;;;44.07;22.87;;;5.80;99.90;;;;;;4997862;28;20199;-89
2022/11/14 06:21:22;;;;;;;51.50;23.07;;;5.80;99.90;;;;;;4998368;28;20210;-88
2022/11/14 06:23:48;;;;;;;44.23;22.33;;;5.70;99.90;;;;;;4994631;28;20191;-88
2022/11/14 06:26:26;;;;;;;49.10;23.83;;;5.70;99.90;;;;;;4978535;28;20185;-88
2022/11/14 06:28:52;;;;;;;54.63;26.70;;;5.70;99.90;;;;;;4977464;28;20218;-91
2022/11/14 06:31:20;;;;;;;51.53;25.20;;;5.80;99.90;;;;;;4986688;28;20184;-90
2022/11/14 06:33:46;;;;;;;48.00;24.00;;;5.80;99.90;;;;;;4997051;28;20183;-90
2022/11/14 06:36:12;;;;;;;49.80;23.97;;;5.80;99.90;;;;;;4997354;28;20186;-91
2022/11/14 06:38:39;;;;;;;50.57;25.70;;;5.80;99.90;;;;;;4996861;28;20662;-90
2022/11/14 06:41:14;;;;;;;49.37;23.70;;;5.80;99.90;;;;;;4996556;28;20188;-88
2022/11/14 06:43:44;;;;;;;48.50;25.13;;;5.70;99.90;;;;;;4985466;28;20172;-89
2022/11/14 06:46:12;;;;;;;54.57;24.97;;;5.80;99.90;;;;;;4977156;28;20176;-95
2022/11/14 06:48:39;;;;;;;49.47;23.67;;;5.80;99.90;;;;;;4977040;28;20216;-89
2022/11/14 06:51:05;;;;;;;51.57;25.00;;;5.80;99.90;;;;;;4995039;28;20315;-94
2022/11/14 06:53:33;;;;;;;51.23;24.90;;;5.90;99.90;;;;;;4996678;28;20180;-88
2022/11/14 06:56:02;;;;;;;50.83;24.43;;;5.90;99.90;;;;;;4995996;28;20897;-93
2022/11/14 06:58:34;;;;;;;52.03;23.53;;;5.90;99.90;;;;;;4996608;28;20180;-89
2022/11/14 07:01:06;;;;;;;48.30;23.97;;;5.90;99.90;;;;;;4996835;28;20194;-93
2022/11/14 07:03:33;;;;;;;50.00;24.20;;;5.90;99.90;;;;;;4996229;28;20188;-89
2022/11/14 07:06:03;;;;;;;45.87;22.30;;;5.90;99.90;;;;;;4997962;28;20176;-88
2022/11/14 07:08:29;;;;;;;53.43;24.67;;;5.90;99.90;;;;;;5015679;28;20207;-92
2022/11/14 07:11:01;;;;;;;46.77;23.77;;;6.00;99.90;;;;;;5015937;28;20178;-94
2022/11/14 07:13:33;;;;;;;51.40;24.57;;;6.00;99.90;;;;;;5005756;28;20172;-91
2022/11/14 07:15:59;;;;;;;50.63;24.17;;;6.00;99.90;;;;;;4996218;28;20234;-91
2022/11/14 07:18:25;;;;;;;51.60;24.13;;;6.00;99.90;;;;;;4996396;28;20183;-90
2022/11/14 07:21:04;;;;;;;53.33;24.47;;;6.00;99.90;;;;;;4995861;28;20172;-91
2022/11/14 07:23:31;;;;;;;47.20;23.20;;;6.00;99.90;;;;;;4996091;28;20175;-91
2022/11/14 07:26:03;;;;;;;45.50;23.73;;;6.00;99.90;;;;;;4995299;28;20262;-89
2022/11/14 07:28:30;;;;;;;46.37;22.53;;;6.00;99.90;;;;;;4988556;28;20214;-88
2022/11/14 07:30:56;;;;;;;44.57;22.90;;;6.10;99.90;;;;;;4975617;28;20192;-88
2022/11/14 07:33:23;;;;;;;52.30;23.73;;;6.00;99.90;;;;;;4983368;28;20193;-90
2022/11/14 07:35:50;;;;;;;48.30;23.07;;;6.10;99.90;;;;;;4993766;28;20246;-91
2022/11/14 07:38:16;;;;;;;46.57;23.70;;;6.10;99.90;;;;;;4995800;28;20235;-89
2022/11/14 07:40:41;;;;;;;46.07;23.53;;;6.10;99.90;;;;;;4996088;28;20795;-90
2022/11/14 07:43:08;;;;;;;47.17;23.30;;;6.10;99.90;;;;;;4995502;28;20303;-88
2022/11/14 07:45:34;;;;;;;47.80;24.20;;;6.10;99.90;;;;;;4995405;28;20175;-91
2022/11/14 07:48:01;;;;;;;46.80;24.30;;;6.10;99.90;;;;;;4995171;28;20172;-92
2022/11/14 07:50:29;;;;;;;47.63;23.93;;;6.10;99.90;;;;;;4995588;28;20184;-89
2022/11/14 07:52:56;;;;;;;42.00;22.20;;;6.10;99.90;;;;;;4995446;28;20172;-89
2022/11/14 07:55:22;;;;;;;44.33;22.90;;;6.20;99.90;;;;;;5011219;28;20190;-89
2022/11/14 07:57:51;;;;;;;44.47;23.30;;;6.20;99.90;;;;;;5014997;28;20665;-90
2022/11/14 08:00:17;;;;;;;47.97;22.53;;;6.20;99.90;;;;;;4975759;28;20180;-92
2022/11/14 08:02:45;;;;;;;45.90;23.23;;;6.20;99.90;;;;;;4975672;28;20276;-87
2022/11/14 08:05:11;;;;;;;47.03;23.87;;;6.20;99.90;;;;;;4975860;28;20172;-89
2022/11/14 08:07:36;;;;;;;42.77;23.07;;;6.20;99.90;;;;;;4976587;28;20173;-87
2022/11/14 08:10:03;;;;;;;41.47;21.60;;;6.20;99.90;;;;;;4975959;28;20220;-87
2022/11/14 08:12:33;;;;;;;42.00;22.30;;;6.20;99.90;;;;;;4975594;28;20188;-91
2022/11/14 08:14:59;;;;;;;42.13;22.30;;;6.20;99.90;;;;;;4975525;28;20277;-90
2022/11/14 08:17:25;;;;;;;39.80;23.00;;;6.20;99.90;;;;;;4991506;28;20245;-90
2022/11/14 08:19:50;;;;;;;47.33;23.70;;;6.30;99.90;;;;;;4995006;28;20298;-90
2022/11/14 08:22:23;;;;;;;47.63;22.97;;;6.30;99.90;;;;;;4980058;28;20180;-92
2022/11/14 08:24:49;;;;;;;43.57;23.00;;;6.30;99.90;;;;;;4988588;28;20191;-90
2022/11/14 08:27:14;;;;;;;43.17;22.87;;;6.30;99.90;;;;;;4994857;28;20180;-87
2022/11/14 08:29:40;;;;;;;50.27;24.00;;;6.30;99.90;;;;;;4994928;28;20368;-91
2022/11/14 08:32:10;;;;;;;49.50;23.47;;;6.40;99.90;;;;;;4995131;28;20610;-88
2022/11/14 08:34:36;;;;;;;45.23;24.93;;;6.40;99.90;;;;;;4994551;28;20367;-90
2022/11/14 08:37:02;;;;;;;42.80;23.37;;;6.40;99.90;;;;;;4994715;28;20207;-89
2022/11/14 08:39:28;;;;;;;43.87;23.30;;;6.40;99.90;;;;;;4994802;28;20230;-92
2022/11/14 08:41:55;;;;;;;40.50;22.10;;;6.40;99.90;;;;;;4994652;28;20180;-90
2022/11/14 08:44:20;;;;;;;42.77;23.87;;;6.40;99.90;;;;;;4995872;28;20603;-90
2022/11/14 08:46:46;;;;;;;40.47;22.23;;;6.50;99.90;;;;;;4994282;28;20238;-91
2022/11/14 08:49:12;;;;;;;47.97;23.97;;;6.60;99.90;;;;;;4993662;28;20215;-93
2022/11/14 08:51:38;;;;;;;42.80;23.13;;;6.60;99.90;;;;;;4994701;28;20210;-87
2022/11/14 08:54:04;;;;;;;39.20;22.23;;;6.60;99.90;;;;;;4994780;28;20219;-87
2022/11/14 08:56:30;;;;;;;44.77;22.80;;;6.60;99.90;;;;;;4994248;28;20218;-88
2022/11/14 08:58:55;;;;;;;41.17;22.00;;;6.70;99.90;;;;;;4995442;28;20176;-87
2022/11/14 09:01:21;;;;;;;37.07;21.63;;;6.70;99.90;;;;;;4994175;28;20258;-88
2022/11/14 09:03:47;;;;;;;37.80;21.10;;;6.70;99.90;;;;;;4994464;28;20203;-92
2022/11/14 09:06:12;;;;;;;38.63;20.60;;;6.80;99.90;;;;;;4994491;28;20623;-86
2022/11/14 09:08:38;;;;;;;38.17;20.97;;;6.80;99.90;;;;;;4994392;28;20207;-88
2022/11/14 09:11:05;;;;;;;36.83;21.00;;;6.80;99.90;;;;;;5008905;28;20257;-94
2022/11/14 09:13:34;;;;;;;41.03;21.37;;;6.80;99.90;;;;;;5014640;28;20637;-91
2022/11/14 09:16:00;;;;;;;37.03;20.80;;;6.90;99.90;;;;;;5003434;28;20323;-93
2022/11/14 09:18:26;;;;;;;34.27;20.37;;;6.90;99.90;;;;;;4994635;28;20500;-92
2022/11/14 09:20:52;;;;;;;36.50;20.73;;;7.00;99.90;;;;;;4995743;28;20191;-92
2022/11/14 09:23:22;;;;;;;37.77;20.90;;;7.00;99.90;;;;;;4994635;28;20572;-91
2022/11/14 09:25:47;;;;;;;36.37;20.30;;;7.00;99.90;;;;;;5011016;28;20187;-91
2022/11/14 09:28:13;;;;;;;37.43;19.90;;;7.00;99.90;;;;;;5015200;28;20186;-93
2022/11/14 09:30:40;;;;;;;39.47;20.07;;;6.90;99.90;;;;;;5014088;28;20239;-90
2022/11/14 09:33:07;;;;;;;34.67;20.07;;;7.00;99.90;;;;;;5013983;28;20199;-90
2022/11/14 09:35:33;;;;;;;34.43;19.70;;;7.00;99.90;;;;;;5014134;28;20186;-91
2022/11/14 09:38:08;;;;;;;38.63;21.27;;;7.00;99.90;;;;;;5014110;28;20229;-91
2022/11/14 09:40:46;;;;;;;37.40;21.73;;;7.00;99.90;;;;;;5014001;28;20191;-93
2022/11/14 09:43:44;;;;;;;37.83;20.67;;;7.00;99.90;;;;;;4999473;28;20227;-92
2022/11/14 09:46:30;;;;;;;34.70;19.67;;;7.20;99.90;;;;;;4994565;28;20172;-91
2022/11/14 09:48:56;;;;;;;38.13;20.90;;;7.20;99.90;;;;;;4993742;28;20242;-90
2022/11/14 09:51:35;;;;;;;38.70;20.20;;;7.20;99.90;;;;;;4993740;28;20180;-90
2022/11/14 09:54:19;;;;;;;37.40;21.23;;;7.30;99.90;;;;;;4990796;28;20251;-94
2022/11/14 09:56:45;;;;;;;36.23;20.70;;;7.40;99.90;;;;;;4997487;28;20184;-90
2022/11/14 09:59:12;;;;;;;36.80;21.27;;;7.40;99.90;;;;;;4997744;28;20275;-90
2022/11/14 10:01:58;;;;;;;34.87;19.37;;;7.50;99.90;;;;;;4998771;28;20187;-94
2022/11/14 10:04:43;;;;;;;31.10;19.60;;;7.60;99.90;;;;;;4997545;28;20634;-93
2022/11/14 10:07:46;;;;;;;36.97;19.53;;;7.70;99.90;;;;;;4997538;28;20227;-87
2022/11/14 10:10:32;;;;;;;33.77;19.97;;;7.80;99.90;;;;;;4997211;28;20544;-87
2022/11/14 10:13:25;;;;;;;32.37;18.93;;;7.90;99.90;;;;;;4997263;28;20199;-89
2022/11/14 10:16:06;;;;;;;34.80;19.97;;;7.80;99.90;;;;;;4997577;28;20226;-90
2022/11/14 10:18:57;;;;;;;31.63;17.77;;;7.90;99.90;;;;;;4984110;28;20172;-90
2022/11/14 10:21:43;;;;;;;30.13;18.10;;;7.90;99.90;;;;;;4998231;28;20230;-87
2022/11/14 10:24:36;;;;;;;30.33;17.47;;;7.90;99.90;;;;;;4996887;28;20246;-89
2022/11/14 10:27:04;;;;;;;32.93;19.43;;;7.90;99.90;;;;;;4983726;28;20196;-92
2022/11/14 10:29:58;;;;;;;34.03;19.33;;;7.90;99.90;;;;;;4983902;28;20212;-90
2022/11/14 10:33:02;;;;;;;32.70;19.77;;;7.90;99.90;;;;;;4977684;28;20655;-86
2022/11/14 10:35:38;;;;;;;32.50;19.07;;;7.90;99.90;;;;;;4988579;28;20219;-88
2022/11/14 10:38:16;;;;;;;33.47;20.27;;;7.90;99.90;;;;;;4977240;28;20280;-87
2022/11/14 10:40:46;;;;;;;33.43;19.27;;;8.10;99.90;;;;;;4977711;28;20176;-90
2022/11/14 10:43:22;;;;;;;35.47;20.17;;;8.10;99.90;;;;;;4978227;28;20251;-89
2022/11/14 10:46:11;;;;;;;31.70;18.87;;;8.00;99.90;;;;;;4996629;28;20598;-88
2022/11/14 10:48:47;;;;;;;34.30;20.30;;;8.00;99.90;;;;;;4996292;28;20295;-87
2022/11/14 10:51:35;;;;;;;36.97;21.63;;;8.10;99.90;;;;;;4997360;28;20160;-87
2022/11/14 10:54:23;;;;;;;33.53;19.97;;;8.20;99.90;;;;;;5000933;28;20629;-87
2022/11/14 10:56:51;;;;;;;35.50;20.70;;;8.30;99.90;;;;;;5005260;28;20183;-88
2022/11/14 10:59:18;;;;;;;32.77;20.20;;;8.40;99.90;;;;;;5015462;28;20179;-86
2022/11/14 11:01:54;;;;;;;34.93;19.80;;;8.30;99.90;;;;;;5015731;28;20183;-90
2022/11/14 11:04:44;;;;;;;32.07;19.17;;;8.40;99.90;;;;;;5002895;28;20188;-88
2022/11/14 11:11:28;;;;;;;32.30;21.03;;;8.50;99.90;;;;;;4996038;28;20172;-86
2022/11/14 11:12:50;;;;;;;33.20;20.07;;;8.60;99.90;;;;;;4996358;28;20191;-87
2022/11/14 11:15:30;;;;;;;34.13;19.10;;;8.70;99.90;;;;;;4995118;28;20194;-87
2022/11/14 11:18:18;;;;;;;33.43;20.27;;;8.80;99.90;;;;;;4995199;28;20184;-90
2022/11/14 11:21:06;;;;;;;33.03;18.73;;;8.80;99.90;;;;;;4995205;28;20207;-87
2022/11/14 11:23:36;;;;;;;32.27;19.43;;;8.90;99.90;;;;;;4996317;28;20207;-86
2022/11/14 11:26:14;;;;;;;31.57;18.20;;;8.90;99.90;;;;;;4994953;28;20242;-86
2022/11/14 11:28:40;;;;;;;30.17;19.03;;;8.90;99.90;;;;;;4995345;28;20214;-89
2022/11/14 11:31:10;;;;;;;32.00;18.30;;;9.00;99.90;;;;;;4994908;28;20176;-85
2022/11/14 11:33:37;;;;;;;26.00;17.92;;;9.10;99.90;;;;;;4994347;28;20203;-85
2022/11/14 11:36:13;;;;;;;28.73;17.77;;;9.10;99.90;;;;;;4995173;28;20267;-86
2022/11/14 11:38:40;;;;;;;30.83;19.37;;;9.20;99.90;;;;;;4995304;28;20223;-88
2022/11/14 11:41:24;;;;;;;31.63;18.83;;;9.20;99.90;;;;;;4989834;28;20242;-84
2022/11/14 11:43:55;;;;;;;31.05;18.75;;;9.30;99.90;;;;;;4993935;28;20619;-85
2022/11/14 11:46:52;;;;;;;29.38;17.92;;;9.30;99.90;;;;;;4995192;28;20176;-85
2022/11/14 11:49:28;;;;;;;24.98;16.25;;;9.30;99.90;;;;;;4994715;28;20208;-85
2022/11/14 11:51:55;;;;;;;21.50;14.93;;;9.40;99.90;;;;;;4995859;28;20655;-84
2022/11/14 11:54:42;;;;;;;21.88;15.20;;;9.50;99.90;;;;;;4994177;28;20188;-87
2022/11/14 11:57:17;;;;;;;26.35;16.13;;;9.50;99.90;;;;;;4994223;28;20168;-86
2022/11/14 11:59:50;;;;;;;24.15;16.08;;;9.50;99.90;;;;;;4995444;28;20544;-86
2022/11/14 12:02:26;;;;;;;26.80;15.95;;;9.60;99.90;;;;;;4994370;28;20270;-87
2022/11/14 12:04:55;;;;;;;24.00;15.52;;;9.60;99.90;;;;;;5003932;28;20238;-86
2022/11/14 12:07:30;;;;;;;23.42;16.48;;;9.70;99.90;;;;;;5014293;28;20171;-85
2022/11/14 12:09:57;;;;;;;23.70;16.55;;;9.70;99.90;;;;;;5014098;28;20213;-87
2022/11/14 12:12:48;;;;;;;26.15;16.77;;;9.70;99.90;;;;;;5011724;28;20322;-83
2022/11/14 12:15:42;;;;;;;25.13;16.85;;;9.70;99.90;;;;;;4994443;28;20179;-86
2022/11/14 12:18:20;;;;;;;24.58;16.10;;;9.70;99.90;;;;;;4993669;28;20210;-86
2022/11/14 12:21:11;;;;;;;27.73;16.92;;;9.70;99.90;;;;;;4993282;28;20184;-84
2022/11/14 12:23:52;;;;;;;25.17;15.70;;;9.80;99.90;;;;;;4984092;28;20267;-84
2022/11/14 12:26:39;;;;;;;24.15;16.13;;;9.80;99.90;;;;;;4974712;28;20173;-85
2022/11/14 12:29:16;;;;;;;23.17;15.35;;;9.90;99.90;;;;;;4974602;28;20663;-85
2022/11/14 12:31:42;;;;;;;20.98;15.23;;;9.90;99.90;;;;;;4977441;28;20191;-86
2022/11/14 12:34:26;;;;;;;23.95;15.95;;;9.90;99.90;;;;;;4975291;28;20191;-87
2022/11/14 12:36:52;;;;;;;21.63;14.85;;;9.90;99.90;;;;;;4974873;28;20852;-86
2022/11/14 12:39:29;;;;;;;22.05;15.35;;;10.00;99.90;;;;;;4974072;28;20236;-85
2022/11/14 12:42:06;;;;;;;22.17;14.82;;;10.00;99.90;;;;;;4974298;28;20186;-86
2022/11/14 12:44:37;;;;;;;23.33;15.55;;;10.00;99.90;;;;;;4974379;28;20177;-86
2022/11/14 12:47:05;;;;;;;18.67;14.50;;;10.10;99.90;;;;;;4974496;28;20173;-86
2022/11/14 12:49:46;;;;;;;21.38;14.55;;;10.10;99.90;;;;;;4981693;28;20238;-90
2022/11/14 12:52:40;;;;;;;20.45;14.75;;;10.20;99.90;;;;;;4994157;28;20175;-86